Other Surface Observations
Issued by NWS Great Falls, MT

Home | Current Version | Previous Version | Text Only | Print | Product List | Glossary On
Versions: 1 2 3 4 5 6 7 8 9 10 11 12 13 14 15 16 17 18 19 20 21 22 23 24 25 26 27 28 29 30 31 32 33 34 35 36 37 38 39 40 41 42 43 44 45 46 47 48 49 50
120
SXUS55 KTFX 271906
OSOTFX

AREA AWOS OBSERVATIONS
NATIONAL WEATHER SERVICE GREAT FALLS MT
0106 PM MDT Thu Apr 27 2017

METAR K6S8 271855Z AUTO 34005KT 7SM 07/01 A2966 RMK A01 T00660011
METAR K7S1 271855Z AUTO 34011KT 40SM 07/M06 A2975 RMK A01 T00721055
METAR K7S1 271755Z AUTO 27006KT 40SM 07/M06 A2975 RMK A01 T00661061
METAR K9S5 271855Z AUTO 26007KT 40SM 08/M12 A2973 RMK A01 T00771116
METAR KRPX 271855Z AUTO 02009KT 40SM 07/03 A2959 RMK A01 T00720027
METAR KS34 271755Z AUTO 33003KT 40SM 07/M02 A2986 RMK A01 T00721022
METAR KTHM 271755Z AUTO 30005KT 40SM 07/M01 A2990 RMK A01 T00661011



USA.gov is the U.S. government's official web portal to all federal, state and local government web resources and services.